Time;durP1;ratioP1;P1;durP2;ratioP2;P2;SDS_P1;SDS_P2;PMS_P1;PMS_P2;Temp;Humidity;BMP_temperature;BMP_pressure;BME280_temperature;BME280_humidity;BME280_pressure;Samples;Min_cycle;Max_cycle;Signal;HPM_P1;HPM_P2
2021/11/28 00:00:53;;;;;;;33.40;14.05;;;4.80;99.90;;;;;;4841570;29;20297;-77
2021/11/28 00:03:20;;;;;;;40.97;16.30;;;4.80;99.90;;;;;;4869143;29;20057;-77
2021/11/28 00:06:00;;;;;;;39.00;16.37;;;4.80;99.90;;;;;;4862042;29;20058;-80
2021/11/28 00:11:06;;;;;;;39.45;16.67;;;4.80;99.90;;;;;;4864076;29;20053;-79
2021/11/28 00:14:14;;;;;;;36.58;15.98;;;4.80;99.90;;;;;;4842538;29;20045;-81
2021/11/28 00:16:20;;;;;;;33.75;14.65;;;4.80;99.90;;;;;;4859357;29;20038;-79
2021/11/28 00:18:46;;;;;;;40.28;16.27;;;4.80;99.90;;;;;;4865249;29;20046;-79
2021/11/28 00:21:13;;;;;;;36.08;14.73;;;4.80;99.90;;;;;;4870991;29;20014;-79
2021/11/28 00:23:39;;;;;;;34.42;15.68;;;4.80;99.90;;;;;;4861539;29;20030;-79
2021/11/28 00:26:05;;;;;;;39.63;16.75;;;4.80;99.90;;;;;;4847043;29;20025;-79
2021/11/28 00:28:31;;;;;;;39.95;17.25;;;4.80;99.90;;;;;;4847458;29;20475;-79
2021/11/28 00:30:57;;;;;;;36.60;16.20;;;4.80;99.90;;;;;;4863232;29;20136;-79
2021/11/28 00:33:23;;;;;;;38.80;18.25;;;4.70;99.90;;;;;;4862371;29;20029;-79
2021/11/28 00:35:49;;;;;;;42.50;17.60;;;4.70;99.90;;;;;;4864794;29;20418;-79
2021/11/28 00:38:14;;;;;;;35.67;16.15;;;4.80;99.90;;;;;;4862258;29;20473;-79
2021/11/28 00:40:40;;;;;;;43.38;16.90;;;4.70;99.90;;;;;;4853816;29;20069;-80
2021/11/28 00:43:06;;;;;;;38.03;17.17;;;4.80;99.90;;;;;;4863866;29;20069;-80
2021/11/28 00:45:31;;;;;;;37.30;15.68;;;4.80;99.90;;;;;;4882109;29;20068;-79
2021/11/28 00:47:57;;;;;;;36.40;16.90;;;4.80;99.90;;;;;;4884914;29;20073;-80
2021/11/28 00:52:50;;;;;;;39.50;16.92;;;4.90;99.90;;;;;;4885168;29;20049;-79
2021/11/28 00:55:15;;;;;;;41.47;16.30;;;4.80;99.90;;;;;;4879746;29;20021;-78
2021/11/28 00:57:41;;;;;;;38.58;16.85;;;4.80;99.90;;;;;;4882513;29;20161;-78
2021/11/28 01:00:08;;;;;;;36.78;15.32;;;4.80;99.90;;;;;;4884647;29;20034;-79
2021/11/28 01:02:35;;;;;;;42.85;16.58;;;4.80;99.90;;;;;;4883404;29;20033;-79
2021/11/28 01:05:02;;;;;;;42.17;17.25;;;4.80;99.90;;;;;;4885079;29;20030;-79
2021/11/28 01:07:27;;;;;;;44.25;15.80;;;4.80;99.90;;;;;;4884714;29;20026;-77
2021/11/28 01:09:54;;;;;;;45.63;18.42;;;4.80;99.90;;;;;;4885131;29;20020;-79
2021/11/28 01:12:20;;;;;;;40.53;18.13;;;4.90;99.90;;;;;;4884881;29;20018;-80
2021/11/28 01:14:46;;;;;;;42.70;17.23;;;4.80;99.90;;;;;;4884702;29;20029;-79
2021/11/28 01:17:11;;;;;;;35.03;15.18;;;4.80;99.90;;;;;;4880483;29;20048;-77
2021/11/28 01:19:37;;;;;;;39.58;16.63;;;4.80;99.90;;;;;;4871086;29;20044;-81
2021/11/28 01:22:08;;;;;;;51.00;18.42;;;4.80;99.90;;;;;;4862573;29;20089;-80
2021/11/28 01:24:34;;;;;;;44.53;16.20;;;4.70;99.90;;;;;;4866170;29;20172;-80
2021/11/28 01:27:01;;;;;;;44.90;17.70;;;4.70;99.90;;;;;;4859984;29;20032;-80
2021/11/28 01:29:27;;;;;;;36.45;16.65;;;4.60;99.90;;;;;;4874059;29;20054;-81
2021/11/28 01:31:54;;;;;;;41.80;16.95;;;4.70;99.90;;;;;;4882603;29;20073;-80
2021/11/28 01:34:20;;;;;;;37.83;17.42;;;4.70;99.90;;;;;;4873589;29;20055;-80
2021/11/28 01:36:45;;;;;;;41.42;17.83;;;4.70;99.90;;;;;;4849534;29;20041;-80
2021/11/28 01:39:11;;;;;;;41.13;16.88;;;4.80;99.90;;;;;;4864282;29;20471;-79
2021/11/28 01:41:38;;;;;;;34.72;16.60;;;4.80;99.90;;;;;;4844780;29;20038;-78
2021/11/28 01:44:05;;;;;;;32.63;14.65;;;4.70;99.90;;;;;;4861600;29;20105;-79
2021/11/28 01:46:32;;;;;;;34.78;16.08;;;4.80;99.90;;;;;;4861388;29;20041;-80
2021/11/28 01:48:58;;;;;;;40.28;16.77;;;4.70;99.90;;;;;;4860997;29;20495;-80
2021/11/28 01:51:24;;;;;;;35.92;15.02;;;4.80;99.90;;;;;;4851149;29;20136;-81
2021/11/28 01:53:53;;;;;;;39.40;16.00;;;4.80;99.90;;;;;;4860141;29;20466;-79
2021/11/28 01:56:21;;;;;;;42.55;17.48;;;4.80;99.90;;;;;;4860767;29;20042;-79
2021/11/28 01:58:47;;;;;;;46.35;18.10;;;4.80;99.90;;;;;;4860597;29;20053;-80
2021/11/28 02:01:16;;;;;;;47.58;16.92;;;4.80;99.90;;;;;;4860452;29;20041;-79
2021/11/28 02:03:43;;;;;;;48.28;16.48;;;4.70;99.90;;;;;;4859175;29;20045;-80
2021/11/28 02:06:13;;;;;;;43.45;18.55;;;4.70;99.90;;;;;;4859762;29;20049;-80
2021/11/28 02:08:40;;;;;;;43.38;17.58;;;4.70;99.90;;;;;;4858655;29;20045;-80
2021/11/28 02:11:06;;;;;;;39.63;17.80;;;4.70;99.90;;;;;;4858509;29;20105;-80
2021/11/28 02:13:33;;;;;;;49.50;17.67;;;4.80;99.90;;;;;;4862030;29;20046;-80
2021/11/28 02:15:59;;;;;;;43.88;16.40;;;4.80;99.90;;;;;;4862792;29;20048;-81
2021/11/28 02:18:25;;;;;;;39.25;18.48;;;4.80;99.90;;;;;;4862126;29;20402;-79
2021/11/28 02:20:53;;;;;;;42.67;16.52;;;4.80;99.90;;;;;;4863604;29;20032;-81
2021/11/28 02:23:19;;;;;;;42.88;17.23;;;4.80;99.90;;;;;;4863276;29;20053;-80
2021/11/28 02:25:45;;;;;;;44.58;17.15;;;4.70;99.90;;;;;;4863528;29;20044;-80
2021/11/28 02:28:13;;;;;;;39.60;17.70;;;4.80;99.90;;;;;;4863011;29;20036;-79
2021/11/28 02:30:38;;;;;;;46.63;18.55;;;4.70;99.90;;;;;;4862990;29;20036;-80
2021/11/28 02:33:05;;;;;;;45.20;17.73;;;4.80;99.90;;;;;;4863107;29;20033;-79
2021/11/28 02:35:32;;;;;;;45.13;16.67;;;4.80;99.90;;;;;;4863080;29;20037;-80
2021/11/28 02:37:58;;;;;;;43.60;18.38;;;4.80;99.90;;;;;;4862830;29;20386;-80
2021/11/28 02:40:26;;;;;;;40.00;17.98;;;4.80;99.90;;;;;;4844757;29;20547;-78
2021/11/28 02:42:53;;;;;;;46.00;17.47;;;4.80;99.90;;;;;;4861842;29;20104;-79
2021/11/28 02:45:22;;;;;;;41.57;16.97;;;4.80;99.90;;;;;;4846840;29;20386;-80
2021/11/28 02:47:48;;;;;;;43.00;17.63;;;4.80;99.90;;;;;;4863737;29;20354;-80
2021/11/28 02:50:16;;;;;;;41.45;17.80;;;4.80;99.90;;;;;;4847398;29;20034;-80
2021/11/28 02:52:46;;;;;;;44.92;17.58;;;4.80;99.90;;;;;;4863189;29;20097;-80
2021/11/28 02:55:11;;;;;;;45.42;18.45;;;4.80;99.90;;;;;;4863445;29;20033;-80
2021/11/28 02:57:37;;;;;;;49.63;19.48;;;4.80;99.90;;;;;;4863210;29;20487;-79
2021/11/28 03:00:05;;;;;;;49.20;18.60;;;4.80;99.90;;;;;;4851520;29;20136;-79
2021/11/28 03:02:31;;;;;;;;;;;4.70;99.90;;;;;;4848391;29;20034;-80
2021/11/28 03:04:56;;;;;;;45.60;16.45;;;4.70;99.90;;;;;;4863881;29;19920;-79
2021/11/28 03:07:23;;;;;;;46.00;18.60;;;4.80;99.90;;;;;;4851721;29;20132;-79
2021/11/28 03:09:50;;;;;;;53.47;18.80;;;4.80;99.90;;;;;;4863118;29;20105;-79
2021/11/28 03:12:15;;;;;;;52.13;18.80;;;4.80;99.90;;;;;;4845125;29;20033;-79
2021/11/28 03:14:41;;;;;;;47.05;17.95;;;4.80;99.90;;;;;;4852206;29;20412;-80
2021/11/28 03:17:07;;;;;;;54.00;19.70;;;4.80;99.90;;;;;;4846666;29;20045;-79
2021/11/28 03:19:33;;;;;;;45.60;17.10;;;4.90;99.90;;;;;;4846841;29;20053;-78
2021/11/28 03:21:59;;;;;;;50.20;18.02;;;4.90;99.90;;;;;;4862610;29;20479;-79
2021/11/28 03:24:25;;;;;;;49.20;17.45;;;4.80;99.90;;;;;;4845545;29;20029;-79
2021/11/28 03:26:53;;;;;;;53.97;20.10;;;4.80;99.90;;;;;;4863239;29;20514;-79
2021/11/28 03:29:22;;;;;;;49.85;18.20;;;4.80;99.90;;;;;;4861864;29;20123;-79
2021/11/28 03:31:51;;;;;;;55.10;17.98;;;4.80;99.90;;;;;;4856685;29;20119;-79
2021/11/28 03:34:18;;;;;;;47.40;18.00;;;4.80;99.90;;;;;;4843048;29;20069;-78
2021/11/28 03:36:48;;;;;;;50.65;16.75;;;4.80;99.90;;;;;;4862288;29;20033;-79
2021/11/28 03:39:17;;;;;;;43.45;16.90;;;4.90;99.90;;;;;;4844716;29;20121;-78
2021/11/28 03:41:45;;;;;;;54.42;18.77;;;4.90;99.90;;;;;;4843816;29;20033;-78
2021/11/28 03:44:11;;;;;;;;;;;4.90;99.90;;;;;;4855112;29;20034;-75
2021/11/28 03:46:36;;;;;;;40.97;17.90;;;4.80;99.90;;;;;;4815740;29;102647;-77
2021/11/28 03:49:39;;;;;;;43.55;16.92;;;4.70;99.90;;;;;;5058940;27;20402;-78
2021/11/28 03:52:05;;;;;;;44.40;16.38;;;4.70;99.90;;;;;;5077524;28;20460;-79
2021/11/28 03:54:31;;;;;;;39.88;17.08;;;4.60;99.90;;;;;;5015570;28;84018;-79
2021/11/28 03:56:57;;;;;;;48.40;18.73;;;4.70;99.90;;;;;;5021615;28;20019;-77
2021/11/28 03:59:22;;;;;;;47.63;18.58;;;4.70;99.90;;;;;;5041638;28;20041;-79
2021/11/28 04:01:48;;;;;;;41.30;16.98;;;4.70;99.90;;;;;;5017234;28;20029;-78
2021/11/28 04:04:14;;;;;;;47.80;17.05;;;4.70;99.90;;;;;;5010570;28;20081;-78
2021/11/28 04:06:41;;;;;;;48.67;18.02;;;4.60;99.90;;;;;;5012178;28;20042;-79
2021/11/28 04:09:07;;;;;;;50.83;20.20;;;4.60;99.90;;;;;;5023430;28;94985;-78
2021/11/28 04:11:33;;;;;;;41.75;16.63;;;4.50;99.90;;;;;;5013691;28;20033;-78
2021/11/28 04:13:59;;;;;;;44.97;17.02;;;4.50;99.90;;;;;;5020655;28;20489;-77
2021/11/28 04:16:25;;;;;;;50.17;17.55;;;4.40;99.90;;;;;;5025380;28;20037;-79
2021/11/28 04:18:50;;;;;;;44.40;16.02;;;4.40;99.90;;;;;;5025027;28;20022;-78
2021/11/28 04:21:16;;;;;;;50.83;17.83;;;4.40;99.90;;;;;;5030171;28;20022;-78
2021/11/28 04:23:42;;;;;;;51.13;18.08;;;4.50;99.90;;;;;;5024612;28;20077;-77
2021/11/28 04:26:08;;;;;;;43.75;16.83;;;4.60;99.90;;;;;;5027724;28;20041;-78
2021/11/28 04:28:34;;;;;;;40.88;16.05;;;4.60;99.90;;;;;;5029758;28;20127;-77
2021/11/28 04:30:59;;;;;;;44.38;16.88;;;4.60;99.90;;;;;;5029171;28;20034;-78
2021/11/28 04:33:25;;;;;;;43.55;17.10;;;4.60;99.90;;;;;;5024191;28;20034;-78
2021/11/28 04:35:50;;;;;;;43.20;17.73;;;4.70;99.90;;;;;;5016499;28;20033;-77
2021/11/28 04:38:16;;;;;;;41.08;15.45;;;4.70;99.90;;;;;;5016644;28;20045;-78
2021/11/28 04:40:42;;;;;;;46.50;16.92;;;4.70;99.90;;;;;;5030094;28;20040;-78
2021/11/28 04:43:07;;;;;;;42.83;16.05;;;4.70;99.90;;;;;;5031818;28;20038;-77
2021/11/28 04:45:33;;;;;;;43.30;17.13;;;4.70;99.90;;;;;;5014312;28;20069;-78
2021/11/28 04:47:59;;;;;;;35.42;14.88;;;4.70;99.90;;;;;;5011475;28;20042;-78
2021/11/28 04:50:24;;;;;;;44.30;14.95;;;4.80;99.90;;;;;;5009003;28;20113;-78
2021/11/28 04:52:50;;;;;;;39.75;13.45;;;4.70;99.90;;;;;;5029180;28;20044;-77
2021/11/28 04:55:16;;;;;;;34.47;14.18;;;4.70;99.90;;;;;;5018903;28;20040;-77
2021/11/28 04:57:42;;;;;;;35.60;12.95;;;4.70;99.90;;;;;;5009854;28;20110;-78
2021/11/28 05:00:16;;;;;;;33.83;13.73;;;4.60;99.90;;;;;;5004139;28;20026;-78
2021/11/28 05:02:41;;;;;;;40.00;13.52;;;4.50;99.90;;;;;;5007466;28;20037;-79
2021/11/28 05:05:08;;;;;;;35.42;13.48;;;4.50;99.90;;;;;;4996147;28;20483;-78
2021/11/28 05:07:34;;;;;;;34.65;13.32;;;4.40;99.90;;;;;;5023915;28;20037;-78
2021/11/28 05:09:59;;;;;;;28.50;11.65;;;4.40;99.90;;;;;;4999515;28;20045;-80
2021/11/28 05:12:25;;;;;;;31.00;13.25;;;4.30;99.90;;;;;;5011074;28;20080;-78
2021/11/28 05:14:53;;;;;;;37.20;13.10;;;4.20;99.90;;;;;;4999837;28;20496;-78
2021/11/28 05:17:19;;;;;;;39.35;13.85;;;4.10;99.90;;;;;;5009777;28;20092;-77
2021/11/28 05:19:45;;;;;;;43.00;13.95;;;4.00;99.90;;;;;;5012640;28;20033;-77
2021/11/28 05:22:10;;;;;;;42.65;15.40;;;3.90;99.90;;;;;;5006863;28;20027;-77
2021/11/28 05:24:36;;;;;;;38.90;14.95;;;3.90;99.90;;;;;;5026824;28;20025;-78
2021/11/28 05:27:02;;;;;;;37.78;13.88;;;3.90;99.90;;;;;;5014899;28;20037;-78
2021/11/28 05:29:28;;;;;;;41.78;14.82;;;3.90;99.90;;;;;;5014923;28;20068;-77
2021/11/28 05:31:54;;;;;;;36.42;13.65;;;3.90;99.90;;;;;;5014478;28;20501;-77
2021/11/28 05:34:19;;;;;;;35.50;14.50;;;3.90;99.90;;;;;;5014229;28;20110;-78
2021/11/28 05:36:45;;;;;;;33.35;14.65;;;3.90;99.90;;;;;;5009296;28;20054;-77
2021/11/28 05:39:11;;;;;;;38.42;14.27;;;3.90;99.90;;;;;;5020760;28;20038;-77
2021/11/28 05:41:36;;;;;;;36.22;13.40;;;4.00;99.90;;;;;;5012725;28;20084;-78
2021/11/28 05:44:02;;;;;;;38.47;14.15;;;4.00;99.90;;;;;;5015257;28;20482;-77
2021/11/28 05:46:28;;;;;;;37.20;13.80;;;4.00;99.90;;;;;;5013213;28;20022;-78
2021/11/28 05:48:53;;;;;;;38.13;14.60;;;4.00;99.90;;;;;;4998264;28;20052;-78
2021/11/28 05:51:19;;;;;;;38.03;16.02;;;4.00;99.90;;;;;;4998694;28;20119;-78
2021/11/28 05:53:45;;;;;;;44.38;15.20;;;4.00;99.90;;;;;;5006534;28;20027;-78
2021/11/28 05:56:10;;;;;;;47.00;15.02;;;4.00;99.90;;;;;;5008806;28;20038;-78
2021/11/28 05:58:36;;;;;;;32.70;14.18;;;4.00;99.90;;;;;;5005312;28;20350;-78
2021/11/28 06:01:02;;;;;;;41.10;14.77;;;4.00;99.90;;;;;;5000447;28;20038;-77
2021/11/28 06:03:27;;;;;;;48.47;16.10;;;4.00;99.90;;;;;;5012776;28;20037;-78
2021/11/28 06:05:53;;;;;;;43.75;16.88;;;4.00;99.90;;;;;;5010169;28;20045;-78
2021/11/28 06:08:19;;;;;;;34.38;14.30;;;4.10;99.90;;;;;;4996072;28;20058;-78
2021/11/28 06:10:45;;;;;;;40.20;15.50;;;4.20;99.90;;;;;;4998820;28;20018;-78
2021/11/28 06:13:11;;;;;;;34.72;14.32;;;4.20;99.90;;;;;;5014069;28;20030;-78
2021/11/28 06:15:36;;;;;;;35.65;14.32;;;4.30;99.90;;;;;;5011773;28;20025;-77
2021/11/28 06:18:02;;;;;;;43.90;14.85;;;4.30;99.90;;;;;;5004712;28;20037;-78
2021/11/28 06:20:28;;;;;;;34.38;15.48;;;4.20;99.90;;;;;;4999774;28;20085;-78
2021/11/28 06:22:54;;;;;;;43.97;16.25;;;4.20;99.90;;;;;;5004182;28;20038;-77
2021/11/28 06:25:20;;;;;;;39.42;13.90;;;4.20;99.90;;;;;;5014654;28;20083;-78
2021/11/28 06:27:45;;;;;;;35.33;14.15;;;4.20;99.90;;;;;;5012051;28;20105;-78
2021/11/28 06:30:11;;;;;;;35.38;14.07;;;4.10;99.90;;;;;;4999662;28;20496;-78
2021/11/28 06:32:38;;;;;;;37.78;13.88;;;4.10;99.90;;;;;;4993600;28;20595;-78
2021/11/28 06:35:05;;;;;;;33.08;13.65;;;4.10;99.90;;;;;;5006598;28;20391;-78
2021/11/28 06:37:31;;;;;;;35.17;14.60;;;4.10;99.90;;;;;;4996545;28;20023;-77
2021/11/28 06:39:56;;;;;;;36.10;14.18;;;4.00;99.90;;;;;;5012596;28;20037;-77
2021/11/28 06:42:22;;;;;;;37.38;13.63;;;4.00;99.90;;;;;;5011966;28;20029;-78
2021/11/28 06:44:48;;;;;;;30.05;13.60;;;3.90;99.90;;;;;;4998519;28;20061;-78
2021/11/28 06:47:13;;;;;;;38.38;14.85;;;3.90;99.90;;;;;;5008713;28;20061;-77
2021/11/28 06:49:41;;;;;;;33.33;13.57;;;3.80;99.90;;;;;;5013342;28;20045;-78
2021/11/28 06:52:07;;;;;;;39.75;14.00;;;3.80;99.90;;;;;;5013561;28;20509;-77
2021/11/28 06:54:33;;;;;;;27.98;12.93;;;3.80;99.90;;;;;;5011988;28;20042;-77
2021/11/28 06:56:59;;;;;;;37.22;15.05;;;3.80;99.90;;;;;;5013938;28;20432;-77
2021/11/28 06:59:26;;;;;;;36.53;14.80;;;3.80;99.90;;;;;;4998276;28;20038;-77
2021/11/28 07:01:52;;;;;;;31.33;13.35;;;3.80;99.90;;;;;;5006419;28;20033;-79
2021/11/28 07:04:18;;;;;;;36.20;12.88;;;3.80;99.90;;;;;;5013363;28;20062;-77
2021/11/28 07:06:43;;;;;;;37.65;11.73;;;3.80;99.90;;;;;;5011593;28;20064;-77
2021/11/28 07:09:09;;;;;;;33.78;14.00;;;3.70;99.90;;;;;;5010631;28;20528;-78
2021/11/28 07:11:35;;;;;;;41.38;15.68;;;3.70;99.90;;;;;;4994511;28;20053;-78
2021/11/28 07:14:01;;;;;;;30.95;13.38;;;3.70;99.90;;;;;;5008240;28;20108;-78
2021/11/28 07:16:26;;;;;;;32.13;12.32;;;3.70;99.90;;;;;;5007959;28;20065;-78
2021/11/28 07:18:52;;;;;;;30.80;13.48;;;3.70;99.90;;;;;;4994171;28;20049;-78
2021/11/28 07:21:37;;;;;;;28.88;12.43;;;3.80;99.90;;;;;;4997492;28;20056;-78
2021/11/28 07:24:03;;;;;;;28.38;11.35;;;3.70;99.90;;;;;;5009404;28;20486;-78
2021/11/28 07:26:29;;;;;;;30.85;12.13;;;3.70;99.90;;;;;;5013374;28;20095;-77
2021/11/28 07:28:54;;;;;;;29.45;12.02;;;3.70;99.90;;;;;;5012764;28;20026;-78
2021/11/28 07:31:21;;;;;;;34.38;12.48;;;3.70;99.90;;;;;;5012534;28;20022;-78
2021/11/28 07:33:46;;;;;;;34.22;13.40;;;3.70;99.90;;;;;;5011575;28;20030;-76
2021/11/28 07:36:12;;;;;;;29.83;11.68;;;3.70;99.90;;;;;;5028183;28;20387;-77
2021/11/28 07:38:38;;;;;;;27.83;12.98;;;3.70;99.90;;;;;;5006956;28;20034;-77
2021/11/28 07:41:04;;;;;;;35.72;12.55;;;3.70;99.90;;;;;;5007921;28;20467;-78
2021/11/28 07:43:30;;;;;;;29.33;12.07;;;3.70;99.90;;;;;;5010102;28;20061;-78
2021/11/28 07:45:56;;;;;;;33.63;12.60;;;3.80;99.90;;;;;;4999558;28;20043;-77
2021/11/28 07:48:22;;;;;;;31.63;13.52;;;3.80;99.90;;;;;;5008333;28;20072;-77
2021/11/28 07:50:49;;;;;;;37.22;13.77;;;3.90;99.90;;;;;;5003558;28;20530;-77
2021/11/28 07:53:15;;;;;;;39.00;14.00;;;3.90;99.90;;;;;;5009219;28;20026;-77
2021/11/28 07:55:42;;;;;;;34.60;12.75;;;4.00;99.90;;;;;;4994318;28;20031;-77
2021/11/28 07:58:08;;;;;;;34.08;12.10;;;4.10;99.90;;;;;;4993727;28;20031;-78
2021/11/28 08:00:34;;;;;;;31.48;13.10;;;4.20;99.90;;;;;;5003021;28;20041;-77
2021/11/28 08:03:00;;;;;;;37.35;12.95;;;4.20;99.90;;;;;;5012677;28;20425;-78
2021/11/28 08:05:27;;;;;;;34.85;14.63;;;4.30;99.90;;;;;;5010349;28;20552;-78
2021/11/28 08:07:53;;;;;;;30.00;13.20;;;4.40;99.90;;;;;;5009425;28;20026;-77
2021/11/28 08:10:19;;;;;;;30.88;12.18;;;4.50;99.90;;;;;;5006459;28;20045;-77
2021/11/28 08:15:29;;;;;;;31.63;13.60;;;4.70;99.90;;;;;;4994154;28;20518;-78
2021/11/28 08:17:54;;;;;;;36.88;13.25;;;4.70;99.90;;;;;;4994313;28;20030;-77
2021/11/28 08:20:22;;;;;;;36.88;14.57;;;4.70;99.90;;;;;;4994913;28;20026;-78
2021/11/28 08:22:48;;;;;;;31.48;13.73;;;4.70;99.90;;;;;;4999020;28;20026;-76
2021/11/28 08:25:15;;;;;;;33.67;13.02;;;4.80;99.90;;;;;;5010608;28;20032;-77
2021/11/28 08:27:42;;;;;;;32.87;12.83;;;4.90;99.90;;;;;;5008144;28;20266;-77
2021/11/28 08:30:13;;;;;;;29.20;12.75;;;4.90;99.90;;;;;;5012570;28;20299;-77
2021/11/28 08:32:39;;;;;;;29.85;12.45;;;4.90;99.90;;;;;;5001963;28;20551;-77
2021/11/28 08:35:07;;;;;;;33.17;13.27;;;4.90;99.90;;;;;;5020228;28;20035;-78
2021/11/28 08:37:33;;;;;;;34.00;13.95;;;5.00;99.90;;;;;;5013110;28;20049;-79
2021/11/28 08:39:59;;;;;;;31.83;13.45;;;5.00;99.90;;;;;;5030829;28;20117;-78
2021/11/28 08:42:25;;;;;;;32.67;13.02;;;4.90;99.90;;;;;;5012898;28;20069;-77
2021/11/28 08:44:50;;;;;;;31.35;13.32;;;4.70;99.90;;;;;;5015916;28;20113;-77
2021/11/28 08:47:17;;;;;;;35.13;14.32;;;4.80;99.90;;;;;;5004800;28;20034;-77
2021/11/28 08:49:43;;;;;;;30.90;13.43;;;4.70;99.90;;;;;;4996962;28;20039;-78
2021/11/28 08:52:13;;;;;;;35.03;13.68;;;4.70;99.90;;;;;;5006680;28;20096;-77
2021/11/28 08:54:38;;;;;;;40.28;14.15;;;4.80;99.90;;;;;;4996829;28;20057;-78
2021/11/28 08:57:04;;;;;;;38.08;15.15;;;4.80;99.90;;;;;;5001625;28;20113;-78
2021/11/28 08:59:30;;;;;;;32.88;14.23;;;4.80;99.90;;;;;;5000361;28;20026;-78
2021/11/28 09:01:57;;;;;;;41.60;14.60;;;4.90;99.90;;;;;;5011380;28;20026;-79
2021/11/28 09:04:24;;;;;;;40.45;15.50;;;5.00;99.90;;;;;;5014755;28;20041;-79
2021/11/28 09:06:49;;;;;;;40.80;15.30;;;5.00;99.90;;;;;;5011705;28;20042;-79
2021/11/28 09:09:15;;;;;;;37.38;14.88;;;5.00;99.90;;;;;;5000030;28;20156;-78
2021/11/28 09:11:40;;;;;;;37.35;14.88;;;5.00;99.90;;;;;;5015119;28;20046;-77
2021/11/28 09:14:06;;;;;;;42.08;15.13;;;5.00;99.90;;;;;;5015363;28;20033;-77
2021/11/28 09:16:32;;;;;;;35.42;14.77;;;5.10;99.90;;;;;;5011505;28;20095;-77
2021/11/28 09:19:20;;;;;;;34.80;14.10;;;5.10;99.90;;;;;;5003365;28;20030;-78
2021/11/28 09:21:47;;;;;;;35.97;14.75;;;5.10;99.90;;;;;;5014391;28;20034;-78
2021/11/28 09:26:57;;;;;;;36.85;14.82;;;5.20;99.90;;;;;;4998063;28;20057;-77
2021/11/28 09:29:24;;;;;;;39.38;15.50;;;5.20;99.90;;;;;;5013693;28;20037;-78
2021/11/28 09:31:50;;;;;;;37.65;13.75;;;5.10;99.90;;;;;;4997887;28;20438;-79
2021/11/28 09:34:17;;;;;;;31.38;13.02;;;5.10;99.90;;;;;;4995979;28;20034;-79
2021/11/28 09:36:42;;;;;;;33.78;13.35;;;5.10;99.90;;;;;;4999993;28;20097;-78
2021/11/28 09:39:08;;;;;;;31.17;12.02;;;5.20;99.90;;;;;;5006510;28;20045;-78
2021/11/28 09:41:36;;;;;;;22.45;10.20;;;5.20;99.90;;;;;;5015721;28;20037;-78
2021/11/28 09:44:09;;;;;;;;;;;5.10;99.90;;;;;;5014567;28;20571;-80
2021/11/28 09:46:36;;;;;;;18.40;8.02;;;5.10;99.90;;;;;;4997244;28;20436;-80
2021/11/28 09:49:07;;;;;;;17.33;7.40;;;5.10;99.90;;;;;;4997644;28;20495;-79
2021/11/28 09:51:34;;;;;;;12.95;6.05;;;5.10;99.90;;;;;;5011980;28;20475;-78
2021/11/28 09:54:03;;;;;;;9.88;5.65;;;5.20;99.90;;;;;;5007981;28;20019;-78
2021/11/28 09:56:33;;;;;;;8.52;4.63;;;5.30;99.90;;;;;;5001435;28;20018;-79
2021/11/28 09:58:59;;;;;;;5.97;3.38;;;5.30;99.90;;;;;;5006466;28;20034;-80
2021/11/28 10:01:26;;;;;;;4.53;1.83;;;5.30;99.90;;;;;;4998407;28;20470;-79
2021/11/28 10:03:53;;;;;;;0.93;0.55;;;5.30;99.90;;;;;;5014115;28;20037;-79
2021/11/28 10:06:18;;;;;;;1.98;0.40;;;5.20;99.90;;;;;;5004245;28;20419;-79
2021/11/28 10:08:45;;;;;;;0.13;0.13;;;5.30;99.90;;;;;;5008086;28;20038;-79
2021/11/28 10:11:16;;;;;;;2.92;0.25;;;5.20;99.90;;;;;;4996543;28;20018;-80
2021/11/28 10:13:47;;;;;;;0.17;0.17;;;5.20;99.90;;;;;;5011231;28;20380;-79
2021/11/28 10:16:13;;;;;;;0.10;0.05;;;5.00;99.90;;;;;;4998533;28;20033;-79
2021/11/28 10:18:40;;;;;;;0.82;0.60;;;4.90;99.90;;;;;;4996777;28;20081;-80
2021/11/28 10:21:05;;;;;;;0.28;0.28;;;4.90;99.90;;;;;;4995723;28;20022;-80
2021/11/28 10:23:31;;;;;;;3.95;0.17;;;4.90;99.90;;;;;;5012742;28;20059;-79
2021/11/28 10:26:14;;;;;;;0.05;0.00;;;4.90;99.90;;;;;;5029892;28;20562;-79
2021/11/28 10:29:09;;;;;;;0.43;0.20;;;4.90;99.90;;;;;;5012842;28;20026;-80
2021/11/28 10:31:56;;;;;;;0.17;0.15;;;5.00;99.90;;;;;;5012341;28;20050;-80
2021/11/28 10:34:24;;;;;;;0.20;0.20;;;5.00;99.90;;;;;;5015032;28;20053;-80
2021/11/28 10:37:00;;;;;;;0.10;0.10;;;5.00;99.90;;;;;;5025130;28;20434;-79
2021/11/28 10:39:26;;;;;;;1.00;0.28;;;5.10;99.90;;;;;;5013847;28;20033;-80
2021/11/28 10:41:57;;;;;;;1.55;0.30;;;5.10;99.90;;;;;;5013237;28;20030;-78
2021/11/28 10:44:24;;;;;;;0.65;0.20;;;5.10;99.90;;;;;;5012007;28;20040;-79
2021/11/28 10:46:51;;;;;;;0.43;0.13;;;5.10;99.90;;;;;;5010979;28;20125;-80
2021/11/28 10:49:24;;;;;;;1.45;0.45;;;5.00;99.90;;;;;;5012797;28;20053;-80
2021/11/28 10:51:53;;;;;;;1.58;0.20;;;5.00;99.90;;;;;;5018597;28;20033;-79
2021/11/28 10:54:30;;;;;;;0.20;0.20;;;5.00;99.90;;;;;;5012614;28;20415;-80
2021/11/28 10:57:08;;;;;;;4.18;0.30;;;4.90;99.90;;;;;;5017943;28;20037;-79
2021/11/28 10:59:35;;;;;;;0.30;0.30;;;4.90;99.90;;;;;;5013515;28;20030;-79
2021/11/28 11:02:17;;;;;;;0.27;0.10;;;5.00;99.90;;;;;;5013353;28;20550;-81
2021/11/28 11:04:43;;;;;;;1.45;0.25;;;4.90;99.90;;;;;;5010588;28;20470;-82
2021/11/28 11:07:13;;;;;;;1.35;0.47;;;5.10;99.90;;;;;;5029522;28;20054;-83
2021/11/28 11:09:44;;;;;;;0.10;0.00;;;5.00;99.90;;;;;;5009456;28;20030;-82
2021/11/28 11:12:35;;;;;;;1.42;0.30;;;5.00;99.90;;;;;;5011497;28;20048;-80
2021/11/28 11:15:01;;;;;;;0.10;0.10;;;5.10;99.90;;;;;;5003672;28;20034;-81
2021/11/28 11:17:31;;;;;;;0.82;0.32;;;5.10;99.90;;;;;;5003710;28;20487;-81
2021/11/28 11:19:58;;;;;;;0.20;0.20;;;5.10;99.90;;;;;;5021948;28;20001;-80
2021/11/28 11:22:26;;;;;;;0.70;0.35;;;5.10;99.90;;;;;;5026788;28;20022;-81
2021/11/28 11:24:53;;;;;;;;;;;5.10;99.90;;;;;;5015331;28;20030;-82
2021/11/28 11:27:23;;;;;;;3.65;0.30;;;5.10;99.90;;;;;;5016509;28;19905;-81
2021/11/28 11:30:11;;;;;;;0.30;0.20;;;5.10;99.90;;;;;;5019249;28;20048;-79
2021/11/28 11:32:55;;;;;;;0.15;0.10;;;5.10;99.90;;;;;;5031767;28;20105;-79
2021/11/28 11:35:41;;;;;;;0.10;0.10;;;5.10;99.90;;;;;;5019518;28;20029;-78
2021/11/28 11:38:13;;;;;;;0.30;0.20;;;4.90;99.90;;;;;;5028618;28;20056;-80
2021/11/28 11:40:39;;;;;;;1.27;0.20;;;4.90;99.90;;;;;;5036552;28;20033;-82
2021/11/28 11:43:06;;;;;;;0.40;0.10;;;4.70;99.90;;;;;;5031764;28;20033;-81
2021/11/28 11:45:37;;;;;;;1.45;0.13;;;4.60;99.90;;;;;;5021134;28;20084;-82
2021/11/28 11:48:06;;;;;;;1.45;0.30;;;4.60;99.90;;;;;;5018668;28;20034;-82
2021/11/28 11:50:35;;;;;;;0.80;0.35;;;4.40;99.90;;;;;;5033561;28;20046;-81
2021/11/28 11:53:03;;;;;;;0.10;0.08;;;4.40;99.90;;;;;;5014754;28;20070;-82
2021/11/28 11:55:49;;;;;;;0.38;0.20;;;4.40;99.90;;;;;;4999042;28;20501;-82
2021/11/28 11:58:31;;;;;;;0.20;0.10;;;4.30;99.90;;;;;;5012996;28;20542;-81
2021/11/28 12:01:08;;;;;;;0.22;0.13;;;4.30;99.90;;;;;;4995904;28;20475;-83
2021/11/28 12:03:50;;;;;;;4.28;0.43;;;4.30;99.90;;;;;;5019092;28;20100;-83
2021/11/28 12:06:16;;;;;;;2.50;0.20;;;4.40;99.90;;;;;;5015713;28;20502;-82
2021/11/28 12:08:53;;;;;;;0.57;0.20;;;4.40;99.90;;;;;;5031038;28;20026;-82
2021/11/28 12:11:22;;;;;;;1.65;0.50;;;4.50;99.90;;;;;;5018221;28;20018;-81
2021/11/28 12:13:59;;;;;;;3.75;0.57;;;4.60;99.90;;;;;;5014567;28;20066;-83
2021/11/28 12:16:32;;;;;;;0.52;0.40;;;4.60;99.90;;;;;;4997873;28;20035;-81
2021/11/28 12:18:58;;;;;;;0.90;0.35;;;4.70;99.90;;;;;;5006391;28;20021;-80
2021/11/28 12:21:33;;;;;;;1.48;0.40;;;4.70;99.90;;;;;;5011888;28;20221;-80
2021/11/28 12:24:06;;;;;;;2.05;0.20;;;4.80;99.90;;;;;;5009542;28;20105;-81
2021/11/28 12:26:31;;;;;;;0.93;0.30;;;4.80;99.90;;;;;;5026217;28;20108;-80
2021/11/28 12:28:57;;;;;;;2.63;0.70;;;4.80;99.90;;;;;;5017415;28;20033;-81
2021/11/28 12:31:32;;;;;;;4.07;0.60;;;4.90;99.90;;;;;;5015918;28;20406;-81
2021/11/28 12:33:57;;;;;;;1.23;0.38;;;4.90;99.90;;;;;;5015009;28;20030;-78
2021/11/28 12:36:32;;;;;;;0.35;0.20;;;5.00;99.90;;;;;;5013287;28;20081;-81
2021/11/28 12:39:00;;;;;;;0.63;0.38;;;5.00;99.90;;;;;;5012653;28;20057;-80
2021/11/28 12:41:52;;;;;;;0.40;0.38;;;5.00;99.90;;;;;;5018417;28;20415;-81
2021/11/28 12:44:23;;;;;;;1.15;0.38;;;5.00;99.90;;;;;;5015175;28;20107;-78
2021/11/28 12:46:54;;;;;;;1.13;0.70;;;5.10;99.90;;;;;;5008860;28;20046;-80
2021/11/28 12:50:01;;;;;;;1.85;0.43;;;5.10;99.90;;;;;;5002483;28;20049;-81
2021/11/28 12:52:30;;;;;;;1.90;0.57;;;5.10;99.90;;;;;;5013084;28;20037;-80
2021/11/28 12:55:07;;;;;;;1.00;0.40;;;5.10;99.90;;;;;;4998472;28;20061;-81
2021/11/28 12:57:35;;;;;;;0.50;0.43;;;5.20;99.90;;;;;;5008298;28;20058;-80